createdAt,value
2017-07-14T00:01:50.221Z,42.97
2017-07-14T00:04:16.888Z,46.78
2017-07-14T00:06:43.580Z,56.28
2017-07-14T00:09:10.260Z,43.63
2017-07-14T00:11:36.964Z,42.85
2017-07-14T00:14:03.636Z,44.78
2017-07-14T00:16:30.340Z,39.30
2017-07-14T00:18:57.016Z,35.25
2017-07-14T00:21:23.712Z,31.77
2017-07-14T00:23:50.384Z,34.97
2017-07-14T00:26:17.084Z,36.88
2017-07-14T00:28:43.756Z,31.33
2017-07-14T00:31:10.428Z,29.40
2017-07-14T00:33:37.103Z,29.42
2017-07-14T00:36:03.777Z,26.10
2017-07-14T00:38:30.443Z,24.50
2017-07-14T00:40:57.116Z,23.02
2017-07-14T00:43:23.811Z,15.65
2017-07-14T00:45:50.484Z,16.80
2017-07-14T00:48:17.179Z,19.08
2017-07-14T00:50:43.844Z,20.23
2017-07-14T00:53:10.545Z,19.42
2017-07-14T00:55:37.226Z,19.60
2017-07-14T00:58:03.924Z,20.12
2017-07-14T01:00:30.592Z,21.77
2017-07-14T01:02:57.279Z,15.57
2017-07-14T01:05:23.949Z,16.45
2017-07-14T01:07:50.645Z,16.48
2017-07-14T01:10:17.316Z,15.30
2017-07-14T01:12:44.012Z,15.25
2017-07-14T01:15:10.680Z,14.90
2017-07-14T01:17:37.376Z,14.18
2017-07-14T01:20:04.056Z,14.60
2017-07-14T01:22:30.742Z,18.00
2017-07-14T01:24:57.411Z,13.18
2017-07-14T01:27:24.112Z,14.25
2017-07-14T01:29:50.784Z,12.30
2017-07-14T01:32:17.483Z,12.77
2017-07-14T01:34:44.153Z,13.57
2017-07-14T01:37:10.848Z,13.50
2017-07-14T01:39:37.519Z,14.32
2017-07-14T01:42:04.225Z,12.80
2017-07-14T01:44:30.896Z,13.00
2017-07-14T01:46:57.869Z,11.52
2017-07-14T01:49:24.531Z,12.95
2017-07-14T01:51:51.200Z,11.93
2017-07-14T01:54:17.868Z,15.10
2017-07-14T01:56:44.545Z,12.73
2017-07-14T01:59:11.211Z,14.30
2017-07-14T02:01:37.880Z,15.02
2017-07-14T02:04:04.548Z,12.93
2017-07-14T02:06:31.231Z,13.18
2017-07-14T02:08:57.899Z,14.20
2017-07-14T02:11:24.572Z,14.45
2017-07-14T02:13:51.268Z,15.27
2017-07-14T02:16:17.944Z,15.27
2017-07-14T02:18:44.643Z,13.80
2017-07-14T02:21:11.316Z,14.93
2017-07-14T02:23:38.009Z,13.00
2017-07-14T02:26:04.674Z,12.88
2017-07-14T02:28:31.370Z,13.82
2017-07-14T02:30:58.036Z,14.45
2017-07-14T02:33:24.729Z,13.88
2017-07-14T02:35:51.400Z,14.90
2017-07-14T02:38:18.104Z,16.17
2017-07-14T02:40:44.773Z,16.15
2017-07-14T02:43:11.463Z,17.52
2017-07-14T02:45:38.145Z,13.85
2017-07-14T02:48:04.840Z,13.43
2017-07-14T02:50:31.509Z,14.68
2017-07-14T02:52:58.208Z,16.27
2017-07-14T02:55:24.875Z,15.27
2017-07-14T02:57:51.544Z,15.60
2017-07-14T03:00:18.221Z,12.98
2017-07-14T03:02:44.964Z,12.45
2017-07-14T03:05:11.632Z,11.07
2017-07-14T03:07:38.301Z,12.20
2017-07-14T03:10:04.961Z,10.18
2017-07-14T03:12:31.634Z,10.52
2017-07-14T03:14:58.298Z,7.37
2017-07-14T03:17:24.975Z,9.20
2017-07-14T03:19:51.640Z,10.38
2017-07-14T03:22:18.300Z,7.65
2017-07-14T03:24:44.969Z,10.52
2017-07-14T03:27:11.630Z,9.23
2017-07-14T03:29:38.304Z,16.12
2017-07-14T03:32:05.012Z,8.27
2017-07-14T03:34:33.523Z,8.13
2017-07-14T03:37:00.184Z,8.25
2017-07-14T03:39:26.849Z,7.90
2017-07-14T03:41:53.508Z,7.10
2017-07-14T03:44:20.172Z,7.85
2017-07-14T03:46:46.836Z,7.93
2017-07-14T03:49:13.517Z,7.50
2017-07-14T03:51:40.185Z,7.15
2017-07-14T03:54:06.872Z,8.52
2017-07-14T03:56:33.531Z,7.20
2017-07-14T03:59:00.215Z,8.00
2017-07-14T04:01:26.880Z,8.38
2017-07-14T04:03:53.572Z,7.20
2017-07-14T04:06:20.240Z,7.35
2017-07-14T04:08:46.937Z,7.30
2017-07-14T04:11:13.597Z,9.80
2017-07-14T04:13:40.262Z,7.55
2017-07-14T04:16:06.924Z,9.32
2017-07-14T04:18:33.584Z,7.53
2017-07-14T04:21:00.259Z,7.85
2017-07-14T04:23:26.919Z,7.78
2017-07-14T04:25:53.581Z,7.07
2017-07-14T04:28:20.583Z,9.63
2017-07-14T04:30:47.259Z,10.00
2017-07-14T04:33:13.924Z,8.00
2017-07-14T04:35:40.591Z,10.20
2017-07-14T04:38:07.261Z,7.72
2017-07-14T04:40:33.932Z,8.23
2017-07-14T04:43:00.597Z,7.75
2017-07-14T04:45:27.261Z,8.35
2017-07-14T04:47:53.925Z,7.70
2017-07-14T04:50:20.592Z,5.53
2017-07-14T04:52:47.251Z,6.15
2017-07-14T04:55:13.912Z,6.28
2017-07-14T04:57:40.572Z,5.87
2017-07-14T05:00:07.232Z,5.93
2017-07-14T05:02:33.925Z,9.23
2017-07-14T05:05:00.583Z,7.35
2017-07-14T05:07:27.245Z,6.90
2017-07-14T05:09:54.017Z,6.53
2017-07-14T05:12:20.680Z,7.25
2017-07-14T05:14:47.344Z,8.85
2017-07-14T05:17:14.007Z,8.40
2017-07-14T05:19:40.675Z,7.00
2017-07-14T05:22:07.331Z,7.00
2017-07-14T05:24:34.027Z,7.47
2017-07-14T05:27:00.694Z,6.25
2017-07-14T05:29:27.357Z,6.35
2017-07-14T05:31:54.029Z,6.95
2017-07-14T05:34:20.692Z,7.28
2017-07-14T05:36:47.381Z,6.80
2017-07-14T05:39:14.049Z,5.10
2017-07-14T05:41:40.739Z,4.93
2017-07-14T05:44:07.404Z,6.10
2017-07-14T05:46:34.095Z,5.97
2017-07-14T05:49:00.756Z,5.10
2017-07-14T05:51:27.441Z,4.80
2017-07-14T05:53:54.101Z,5.00
2017-07-14T05:56:20.792Z,4.97
2017-07-14T05:58:47.448Z,4.90
2017-07-14T06:01:14.131Z,4.47
2017-07-14T06:03:40.792Z,4.47
2017-07-14T06:06:07.484Z,4.90
2017-07-14T06:08:34.155Z,4.60
2017-07-14T06:11:00.844Z,6.00
2017-07-14T06:13:27.509Z,5.13
2017-07-14T06:15:54.191Z,4.50
2017-07-14T06:18:20.852Z,6.43
2017-07-14T06:20:47.542Z,4.17
2017-07-14T06:23:14.200Z,5.60
2017-07-14T06:25:40.892Z,6.20
2017-07-14T06:28:07.560Z,5.80
2017-07-14T06:30:34.244Z,6.00
2017-07-14T06:33:00.992Z,5.10
2017-07-14T06:35:27.696Z,4.40
2017-07-14T06:37:54.364Z,4.60
2017-07-14T06:40:21.029Z,4.33
2017-07-14T06:42:47.693Z,5.30
2017-07-14T06:45:14.357Z,5.20
2017-07-14T06:47:41.040Z,4.50
2017-07-14T06:50:07.696Z,4.20
2017-07-14T06:52:34.359Z,5.10
2017-07-14T06:55:01.021Z,4.40
2017-07-14T06:57:27.708Z,4.17
2017-07-14T06:59:54.368Z,4.03
2017-07-14T07:02:21.061Z,4.60
2017-07-14T07:04:47.726Z,5.07
2017-07-14T07:07:14.409Z,3.80
2017-07-14T07:09:41.070Z,3.70
2017-07-14T07:12:07.755Z,4.87
2017-07-14T07:14:34.420Z,3.77
2017-07-14T07:17:01.114Z,4.67
2017-07-14T07:19:27.778Z,4.33
2017-07-14T07:21:54.469Z,5.73
2017-07-14T07:24:21.233Z,4.30
2017-07-14T07:26:47.929Z,4.17
2017-07-14T07:29:14.596Z,5.23
2017-07-14T07:31:41.282Z,4.57
2017-07-14T07:34:08.010Z,3.57
2017-07-14T07:36:34.697Z,4.57
2017-07-14T07:39:01.360Z,4.20
2017-07-14T07:41:28.060Z,4.10
2017-07-14T07:43:54.725Z,3.80
2017-07-14T07:46:27.245Z,6.47
2017-07-14T07:48:59.753Z,3.83
2017-07-14T07:51:26.453Z,4.77
2017-07-14T07:53:53.133Z,4.20
2017-07-14T07:56:19.814Z,4.10
2017-07-14T07:58:46.481Z,4.53
2017-07-14T08:01:13.157Z,3.83
2017-07-14T08:03:39.826Z,5.00
2017-07-14T08:06:06.490Z,6.80
2017-07-14T08:08:33.153Z,4.27
2017-07-14T08:10:59.818Z,4.37
2017-07-14T08:13:26.480Z,3.90
2017-07-14T08:15:53.156Z,3.80
2017-07-14T08:18:19.815Z,4.20
2017-07-14T08:20:46.494Z,3.97
2017-07-14T08:23:13.151Z,6.83
2017-07-14T08:25:39.813Z,4.60
2017-07-14T08:28:06.476Z,4.40
2017-07-14T08:30:33.144Z,3.70
2017-07-14T08:32:59.811Z,4.37
2017-07-14T08:35:26.479Z,3.67
2017-07-14T08:37:53.141Z,3.53
2017-07-14T08:40:19.808Z,4.57
2017-07-14T08:42:46.472Z,4.97
2017-07-14T08:45:13.132Z,4.47
2017-07-14T08:47:39.816Z,3.67
2017-07-14T08:50:06.488Z,5.83
2017-07-14T08:52:33.175Z,3.93
2017-07-14T08:54:59.840Z,3.43
2017-07-14T08:57:26.531Z,3.53
2017-07-14T08:59:53.197Z,3.70
2017-07-14T09:02:19.892Z,3.57
2017-07-14T09:04:46.553Z,4.90
2017-07-14T09:07:13.264Z,4.70
2017-07-14T09:09:39.927Z,4.70
2017-07-14T09:12:06.593Z,5.53
2017-07-14T09:14:33.255Z,4.27
2017-07-14T09:16:59.914Z,4.70
2017-07-14T09:19:26.572Z,3.77
2017-07-14T09:21:53.241Z,5.27
2017-07-14T09:24:19.920Z,5.03
2017-07-14T09:26:46.589Z,4.03
2017-07-14T09:29:13.270Z,8.00
2017-07-14T09:31:39.932Z,5.27
2017-07-14T09:34:06.593Z,4.30
2017-07-14T09:36:33.259Z,4.00
2017-07-14T09:38:59.924Z,3.57
2017-07-14T09:41:26.593Z,4.77
2017-07-14T09:43:53.258Z,4.73
2017-07-14T09:46:19.917Z,4.37
2017-07-14T09:48:46.593Z,4.90
2017-07-14T09:51:13.252Z,4.23
2017-07-14T09:53:39.912Z,4.27
2017-07-14T09:56:06.589Z,4.60
2017-07-14T09:58:33.256Z,4.40
2017-07-14T10:00:59.926Z,4.60
2017-07-14T10:03:26.585Z,5.47
2017-07-14T10:05:53.253Z,4.83
2017-07-14T10:08:19.924Z,4.80
2017-07-14T10:10:46.579Z,5.90
2017-07-14T10:13:13.265Z,6.30
2017-07-14T10:15:39.929Z,5.20
2017-07-14T10:18:06.592Z,7.60
2017-07-14T10:20:33.264Z,5.27
2017-07-14T10:22:59.931Z,5.00
2017-07-14T10:25:26.592Z,5.20
2017-07-14T10:27:53.269Z,5.47
2017-07-14T10:30:19.940Z,5.80
2017-07-14T10:32:46.604Z,5.67
2017-07-14T10:35:13.276Z,5.43
2017-07-14T10:37:39.944Z,6.10
2017-07-14T10:40:06.610Z,6.33
2017-07-14T10:42:33.284Z,5.40
2017-07-14T10:44:59.968Z,5.33
2017-07-14T10:47:26.641Z,5.23
2017-07-14T10:49:53.329Z,5.20
2017-07-14T10:52:19.998Z,5.40
2017-07-14T10:54:46.684Z,5.23
2017-07-14T10:57:13.353Z,5.60
2017-07-14T10:59:40.044Z,5.07
2017-07-14T11:02:06.719Z,6.50
2017-07-14T11:04:33.407Z,6.20
2017-07-14T11:07:00.064Z,5.80
2017-07-14T11:09:26.757Z,6.03
2017-07-14T11:11:53.421Z,6.13
2017-07-14T11:14:20.107Z,5.67
2017-07-14T11:16:46.767Z,5.70
2017-07-14T11:19:13.452Z,6.50
2017-07-14T11:21:40.121Z,5.77
2017-07-14T11:24:06.887Z,5.53
2017-07-14T11:26:33.551Z,6.00
2017-07-14T11:29:00.202Z,6.37
2017-07-14T11:31:26.865Z,6.47
2017-07-14T11:33:53.524Z,5.93
2017-07-14T11:36:20.181Z,6.20
2017-07-14T11:38:46.854Z,6.70
2017-07-14T11:41:13.542Z,5.80
2017-07-14T11:43:40.206Z,6.90
2017-07-14T11:46:06.901Z,5.90
2017-07-14T11:48:33.563Z,5.50
2017-07-14T11:51:00.580Z,5.90
2017-07-14T11:53:27.236Z,6.13
2017-07-14T11:55:53.929Z,6.37
2017-07-14T11:58:20.593Z,5.90
2017-07-14T12:00:47.321Z,5.60
2017-07-14T12:03:13.989Z,6.00
2017-07-14T12:05:40.684Z,6.17
2017-07-14T12:08:07.351Z,7.17
2017-07-14T12:10:34.040Z,6.27
2017-07-14T12:13:00.704Z,6.53
2017-07-14T12:15:27.390Z,5.60
2017-07-14T12:17:54.062Z,6.10
2017-07-14T12:20:20.763Z,5.90
2017-07-14T12:22:47.440Z,5.33
2017-07-14T12:25:14.127Z,8.13
2017-07-14T12:27:40.787Z,5.27
2017-07-14T12:30:07.484Z,5.60
2017-07-14T12:32:34.155Z,5.50
2017-07-14T12:35:00.849Z,5.93
2017-07-14T12:37:27.515Z,5.10
2017-07-14T12:39:54.205Z,6.77
2017-07-14T12:42:20.873Z,5.97
2017-07-14T12:44:47.538Z,6.70
2017-07-14T12:47:14.206Z,6.03
2017-07-14T12:49:40.871Z,6.17
2017-07-14T12:52:07.556Z,6.07
2017-07-14T12:54:34.213Z,6.93
2017-07-14T12:57:00.876Z,6.43
2017-07-14T12:59:27.536Z,5.60
2017-07-14T13:01:54.201Z,6.47
2017-07-14T13:04:20.861Z,6.17
2017-07-14T13:06:47.533Z,5.80
2017-07-14T13:09:14.201Z,7.10
2017-07-14T13:11:40.869Z,6.53
2017-07-14T13:14:07.540Z,6.10
2017-07-14T13:16:34.200Z,6.00
2017-07-14T13:19:00.862Z,5.43
2017-07-14T13:21:27.520Z,5.80
2017-07-14T13:23:54.192Z,5.70
2017-07-14T13:26:20.873Z,5.70
2017-07-14T13:28:47.532Z,5.90
2017-07-14T13:31:14.217Z,6.07
2017-07-14T13:33:40.887Z,5.77
2017-07-14T13:36:07.579Z,6.40
2017-07-14T13:38:34.244Z,5.53
2017-07-14T13:41:00.936Z,6.23
2017-07-14T13:43:27.601Z,5.00
2017-07-14T13:45:54.298Z,10.13
2017-07-14T13:48:20.957Z,7.47
2017-07-14T13:50:47.643Z,5.20
2017-07-14T13:53:14.307Z,6.53
2017-07-14T13:55:41.004Z,5.03
2017-07-14T13:58:07.673Z,5.60
2017-07-14T14:00:34.341Z,4.30
2017-07-14T14:03:01.005Z,5.10
2017-07-14T14:05:27.668Z,4.77
2017-07-14T14:07:54.328Z,4.60
2017-07-14T14:10:20.990Z,5.47
2017-07-14T14:12:47.653Z,4.87
2017-07-14T14:15:14.317Z,5.00
2017-07-14T14:17:40.984Z,4.70
2017-07-14T14:20:07.649Z,5.07
2017-07-14T14:22:34.330Z,4.70
2017-07-14T14:25:00.992Z,4.87
2017-07-14T14:27:27.694Z,5.33
2017-07-14T14:29:54.353Z,5.33
2017-07-14T14:32:21.017Z,5.03
2017-07-14T14:34:47.681Z,4.97
2017-07-14T14:37:14.341Z,5.20
2017-07-14T14:39:41.009Z,6.70
2017-07-14T14:42:07.668Z,4.63
2017-07-14T14:44:34.338Z,5.60
2017-07-14T14:47:00.996Z,5.73
2017-07-14T14:49:27.668Z,5.90
2017-07-14T14:51:54.328Z,4.70
2017-07-14T14:54:20.987Z,4.97
2017-07-14T14:56:47.644Z,5.17
2017-07-14T14:59:14.324Z,5.50
2017-07-14T15:01:40.988Z,4.80
2017-07-14T15:04:07.657Z,4.33
2017-07-14T15:06:34.316Z,8.47
2017-07-14T15:09:00.977Z,5.20
2017-07-14T15:11:27.660Z,5.20
2017-07-14T15:13:54.320Z,4.90
2017-07-14T15:16:21.008Z,6.10
2017-07-14T15:18:47.677Z,4.77
2017-07-14T15:21:14.342Z,5.50
2017-07-14T15:23:41.159Z,4.93
2017-07-14T15:26:07.820Z,6.17
2017-07-14T15:28:34.492Z,4.73
2017-07-14T15:31:01.151Z,5.50
2017-07-14T15:33:27.840Z,5.13
2017-07-14T15:35:54.500Z,5.23
2017-07-14T15:38:21.188Z,6.37
2017-07-14T15:40:47.854Z,6.73
2017-07-14T15:43:14.524Z,5.43
2017-07-14T15:45:41.193Z,7.83
2017-07-14T15:48:07.880Z,6.87
2017-07-14T15:50:34.535Z,6.47
2017-07-14T15:53:01.220Z,6.50
2017-07-14T15:55:27.882Z,7.17
2017-07-14T15:57:54.568Z,7.23
2017-07-14T16:00:21.228Z,7.23
2017-07-14T16:02:47.913Z,8.27
2017-07-14T16:05:14.572Z,8.10
2017-07-14T16:07:41.258Z,7.60
2017-07-14T16:10:07.920Z,8.77
2017-07-14T16:12:34.608Z,9.73
2017-07-14T16:15:01.271Z,9.60
2017-07-14T16:17:27.967Z,8.77
2017-07-14T16:19:54.643Z,8.80
2017-07-14T16:22:21.331Z,9.20
2017-07-14T16:24:48.000Z,8.52
2017-07-14T16:27:14.744Z,8.10
2017-07-14T16:29:41.416Z,7.82
2017-07-14T16:32:08.372Z,8.80
2017-07-14T16:34:35.044Z,8.13
2017-07-14T16:37:01.715Z,7.35
2017-07-14T16:39:28.381Z,7.35
2017-07-14T16:41:55.048Z,8.10
2017-07-14T16:44:21.715Z,8.30
2017-07-14T16:46:48.379Z,7.32
2017-07-14T16:49:15.081Z,7.75
2017-07-14T16:51:41.748Z,7.53
2017-07-14T16:54:08.409Z,7.70
2017-07-14T16:56:35.072Z,7.20
2017-07-14T16:59:01.731Z,9.15
2017-07-14T17:01:28.397Z,7.25
2017-07-14T17:03:55.056Z,7.03
2017-07-14T17:06:21.720Z,7.20
2017-07-14T17:08:48.383Z,9.25
2017-07-14T17:11:15.073Z,11.75
2017-07-14T17:13:41.746Z,12.57
2017-07-14T17:16:08.421Z,11.95
2017-07-14T17:18:35.095Z,13.32
2017-07-14T17:21:01.767Z,12.88
2017-07-14T17:23:28.435Z,12.80
2017-07-14T17:25:55.108Z,11.18
2017-07-14T17:28:21.772Z,10.55
2017-07-14T17:30:48.440Z,10.70
2017-07-14T17:33:15.137Z,10.85
2017-07-14T17:35:41.791Z,9.95
2017-07-14T17:38:08.454Z,9.85
2017-07-14T17:40:35.119Z,10.30
2017-07-14T17:43:01.784Z,11.05
2017-07-14T17:45:28.449Z,8.60
2017-07-14T17:47:55.152Z,9.43
2017-07-14T17:50:21.826Z,11.55
2017-07-14T17:52:48.524Z,10.40
2017-07-14T17:55:15.197Z,11.98
2017-07-14T17:57:41.868Z,9.52
2017-07-14T18:00:08.572Z,12.63
2017-07-14T18:02:35.248Z,10.30
2017-07-14T18:05:01.952Z,12.88
2017-07-14T18:07:28.617Z,9.57
2017-07-14T18:09:55.316Z,11.10
2017-07-14T18:12:21.977Z,8.75
2017-07-14T18:14:48.676Z,10.77
2017-07-14T18:17:15.339Z,9.65
2017-07-14T18:19:42.020Z,7.65
2017-07-14T18:22:08.675Z,7.85
2017-07-14T18:24:35.356Z,8.57
2017-07-14T18:27:02.011Z,7.82
2017-07-14T18:29:28.708Z,8.00
2017-07-14T18:31:55.369Z,7.57
2017-07-14T18:34:22.052Z,8.15
2017-07-14T18:36:48.713Z,8.75
2017-07-14T18:39:15.397Z,7.62
2017-07-14T18:41:42.057Z,7.90
2017-07-14T18:44:08.753Z,8.20
2017-07-14T18:46:35.424Z,8.07
2017-07-14T18:49:02.119Z,8.43
2017-07-14T18:51:28.780Z,10.27
2017-07-14T18:53:55.468Z,13.88
2017-07-14T18:56:22.144Z,11.73
2017-07-14T18:58:48.830Z,10.95
2017-07-14T19:01:15.677Z,9.35
2017-07-14T19:03:42.364Z,9.95
2017-07-14T19:06:09.023Z,8.23
2017-07-14T19:08:35.716Z,8.18
2017-07-14T19:11:02.380Z,8.90
2017-07-14T19:13:29.052Z,8.85
2017-07-14T19:15:55.725Z,7.80
2017-07-14T19:18:22.387Z,7.65
2017-07-14T19:20:49.045Z,7.50
2017-07-14T19:23:15.710Z,12.45
2017-07-14T19:25:42.373Z,8.32
2017-07-14T19:28:09.033Z,9.18
2017-07-14T19:30:35.692Z,8.10
2017-07-14T19:33:02.359Z,8.15
2017-07-14T19:35:29.045Z,9.88
2017-07-14T19:37:55.707Z,9.63
2017-07-14T19:40:22.398Z,10.80
2017-07-14T19:42:49.069Z,11.75
2017-07-14T19:45:15.760Z,9.25
2017-07-14T19:47:42.432Z,10.30
2017-07-14T19:50:09.128Z,11.90
2017-07-14T19:52:35.795Z,12.32
2017-07-14T19:55:02.483Z,15.35
2017-07-14T19:57:29.151Z,14.87
2017-07-14T19:59:55.840Z,14.15
2017-07-14T20:02:22.508Z,14.30
2017-07-14T20:04:49.204Z,15.88
2017-07-14T20:07:15.880Z,15.35
2017-07-14T20:09:42.571Z,13.48
2017-07-14T20:12:09.232Z,14.20
2017-07-14T20:14:35.932Z,16.00
2017-07-14T20:17:02.605Z,14.30
2017-07-14T20:19:29.305Z,16.05
2017-07-14T20:21:55.983Z,15.00
2017-07-14T20:24:22.808Z,16.83
2017-07-14T20:26:49.479Z,17.42
2017-07-14T20:29:16.143Z,15.88
2017-07-14T20:31:42.807Z,16.87
2017-07-14T20:34:09.476Z,17.23
2017-07-14T20:36:36.144Z,18.52
2017-07-14T20:39:02.812Z,16.48
2017-07-14T20:41:29.482Z,19.45
2017-07-14T20:43:56.153Z,21.83
2017-07-14T20:46:22.819Z,20.45
2017-07-14T20:48:49.489Z,19.52
2017-07-14T20:51:16.150Z,18.05
2017-07-14T20:53:42.821Z,19.45
2017-07-14T20:56:09.490Z,22.02
2017-07-14T20:58:36.160Z,20.17
2017-07-14T21:01:02.851Z,21.80
2017-07-14T21:03:29.527Z,19.37
2017-07-14T21:05:56.212Z,23.25
2017-07-14T21:08:22.881Z,21.35
2017-07-14T21:10:49.548Z,21.00
2017-07-14T21:13:16.215Z,19.67
2017-07-14T21:15:42.913Z,20.62
2017-07-14T21:18:10.554Z,21.25
2017-07-14T21:20:37.248Z,22.13
2017-07-14T21:23:03.916Z,23.95
2017-07-14T21:25:30.609Z,22.52
2017-07-14T21:27:57.280Z,24.77
2017-07-14T21:30:23.973Z,20.52
2017-07-14T21:32:50.647Z,22.95
2017-07-14T21:35:17.340Z,22.85
2017-07-14T21:37:44.009Z,23.55
2017-07-14T21:40:10.704Z,18.33
2017-07-14T21:42:37.365Z,23.73
2017-07-14T21:45:04.064Z,27.55
2017-07-14T21:47:30.728Z,24.92
2017-07-14T21:49:57.395Z,28.58
2017-07-14T21:52:24.063Z,25.95
2017-07-14T21:54:50.734Z,20.12
2017-07-14T21:57:17.407Z,22.25
2017-07-14T21:59:44.081Z,32.85
2017-07-14T22:02:10.756Z,28.25
2017-07-14T22:04:37.516Z,23.50
2017-07-14T22:07:04.184Z,23.67
2017-07-14T22:09:30.856Z,30.02
2017-07-14T22:11:57.529Z,28.00
2017-07-14T22:14:24.204Z,27.13
2017-07-14T22:16:51.696Z,26.25
2017-07-14T22:19:18.368Z,23.27
2017-07-14T22:21:45.040Z,27.35
2017-07-14T22:24:11.712Z,28.27
2017-07-14T22:26:38.376Z,19.35
2017-07-14T22:29:05.048Z,19.25
2017-07-14T22:31:31.724Z,22.05
2017-07-14T22:33:58.391Z,21.30
2017-07-14T22:36:25.064Z,16.87
2017-07-14T22:38:51.748Z,15.57
2017-07-14T22:41:18.415Z,19.62
2017-07-14T22:43:45.084Z,17.48
2017-07-14T22:46:11.761Z,15.57
2017-07-14T22:48:38.432Z,16.52
2017-07-14T22:51:05.142Z,16.65
2017-07-14T22:53:31.831Z,14.80
2017-07-14T22:55:58.523Z,13.93
2017-07-14T22:58:25.205Z,15.55
2017-07-14T23:00:51.904Z,14.50
2017-07-14T23:03:18.577Z,14.15
2017-07-14T23:05:45.248Z,14.38
2017-07-14T23:08:11.916Z,12.95
2017-07-14T23:10:38.588Z,13.55
2017-07-14T23:13:05.260Z,11.85
2017-07-14T23:15:31.931Z,17.20
2017-07-14T23:17:58.601Z,11.88
2017-07-14T23:20:25.260Z,10.75
2017-07-14T23:22:51.923Z,16.30
2017-07-14T23:25:18.596Z,10.63
2017-07-14T23:27:45.254Z,9.63
2017-07-14T23:30:11.924Z,12.50
2017-07-14T23:32:38.599Z,9.95
2017-07-14T23:35:05.263Z,9.85
2017-07-14T23:37:31.928Z,12.68
2017-07-14T23:39:58.592Z,12.45
2017-07-14T23:42:25.251Z,9.48
2017-07-14T23:44:51.919Z,14.60
2017-07-14T23:47:18.829Z,12.55
2017-07-14T23:49:45.493Z,8.65
2017-07-14T23:52:12.152Z,9.73
2017-07-14T23:54:38.818Z,13.70
2017-07-14T23:57:05.476Z,9.95
2017-07-14T23:59:32.144Z,11.50
